Time,TemperatureF,DewpointF,PressureIn,WindDirection,WindDirectionDegrees,WindSpeedMPH,WindSpeedGustMPH,Humidity,HourlyPrecipIn,Conditions,Clouds,dailyrainin,SoftwareType,DateUTC
2013-01-15 00:07:00,-6.7,-22.0,30.76,SSW,195,0.0,-999.0,48,-99.99,,,0.00,weatherlink.com 1.10,2013-01-15 07:07:00,
2013-01-15 00:22:00,-6.1,-21.0,30.75,East,97,0.0,-999.0,47,-99.99,,,0.00,weatherlink.com 1.10,2013-01-15 07:22:00,
2013-01-15 00:37:00,-5.7,-22.0,30.76,ESE,117,0.0,-999.0,46,-99.99,,,0.00,weatherlink.com 1.10,2013-01-15 07:37:00,
2013-01-15 00:52:00,-6.0,-22.0,30.76,SW,232,2.0,-999.0,46,-99.99,,,0.00,weatherlink.com 1.10,2013-01-15 07:52:00,
2013-01-15 01:07:00,-6.0,-22.0,30.75,East,97,0.0,-999.0,46,-99.99,,,0.00,weatherlink.com 1.10,2013-01-15 08:07:00,
2013-01-15 01:22:00,-5.4,-22.0,30.75,ESE,117,0.0,-999.0,45,-99.99,,,0.00,weatherlink.com 1.10,2013-01-15 08:22:00,
2013-01-15 01:37:00,-5.5,-21.0,30.76,SW,225,1.0,-999.0,46,-99.99,,,0.00,weatherlink.com 1.10,2013-01-15 08:37:00,
2013-01-15 01:52:00,-5.4,-21.0,30.76,East,92,0.0,-999.0,46,-99.99,,,0.00,weatherlink.com 1.10,2013-01-15 08:52:00,
2013-01-15 02:07:00,-5.9,-22.0,30.76,East,83,0.0,-999.0,46,-99.99,,,0.00,weatherlink.com 1.10,2013-01-15 09:07:00,
2013-01-15 02:22:00,-6.6,-22.0,30.76,East,89,0.0,-999.0,46,-99.99,,,0.00,weatherlink.com 1.10,2013-01-15 09:22:00,
2013-01-15 02:37:00,-7.2,-23.0,30.75,NE,50,0.0,-999.0,47,-99.99,,,0.00,weatherlink.com 1.10,2013-01-15 09:37:00,
2013-01-15 02:52:00,-7.3,-22.0,30.75,NE,34,0.0,-999.0,48,-99.99,,,0.00,weatherlink.com 1.10,2013-01-15 09:52:00,
2013-01-15 03:07:00,-7.6,-22.0,30.75,NW,304,0.0,-999.0,49,-99.99,,,0.00,weatherlink.com 1.10,2013-01-15 10:07:00,
2013-01-15 03:22:00,-7.8,-22.0,30.75,SSW,195,0.0,-999.0,49,-99.99,,,0.00,weatherlink.com 1.10,2013-01-15 10:22:00,
2013-01-15 03:37:00,-8.1,-22.0,30.74,ENE,63,0.0,-999.0,50,-99.99,,,0.00,weatherlink.com 1.10,2013-01-15 10:37:00,
2013-01-15 03:52:00,-8.2,-22.0,30.74,ENE,66,0.0,-999.0,51,-99.99,,,0.00,weatherlink.com 1.10,2013-01-15 10:52:00,
2013-01-15 04:07:00,-8.4,-22.0,30.74,ENE,64,0.0,-999.0,50,-99.99,,,0.00,weatherlink.com 1.10,2013-01-15 11:07:00,
2013-01-15 04:22:00,-8.5,-22.0,30.73,NE,55,0.0,-999.0,51,-99.99,,,0.00,weatherlink.com 1.10,2013-01-15 11:22:00,
2013-01-15 04:37:00,-7.7,-21.0,30.72,West,271,0.0,-999.0,51,-99.99,,,0.00,weatherlink.com 1.10,2013-01-15 11:37:00,
2013-01-15 04:52:00,-7.2,-20.0,30.73,West,261,0.0,-999.0,53,-99.99,,,0.00,weatherlink.com 1.10,2013-01-15 11:52:00,
2013-01-15 05:08:00,-7.7,-20.0,30.73,NE,55,1.0,-999.0,55,-99.99,,,0.00,weatherlink.com 1.10,2013-01-15 12:08:00,
2013-01-15 05:22:00,-8.0,-20.0,30.73,South,182,1.0,-999.0,56,-99.99,,,0.00,weatherlink.com 1.10,2013-01-15 12:22:00,
2013-01-15 05:37:00,-8.8,-21.0,30.73,SE,124,1.0,-999.0,56,-99.99,,,0.00,weatherlink.com 1.10,2013-01-15 12:37:00,
2013-01-15 05:52:00,-9.9,-21.0,30.74,SE,130,2.0,-999.0,59,-99.99,,,0.00,weatherlink.com 1.10,2013-01-15 12:52:00,
2013-01-15 06:07:00,-9.9,-20.0,30.74,East,94,1.0,-999.0,60,-99.99,,,0.00,weatherlink.com 1.10,2013-01-15 13:07:00,
2013-01-15 06:22:00,-10.2,-20.0,30.74,East,94,2.0,-999.0,61,-99.99,,,0.00,weatherlink.com 1.10,2013-01-15 13:22:00,
2013-01-15 06:37:00,-10.4,-20.0,30.74,South,189,1.0,-999.0,62,-99.99,,,0.00,weatherlink.com 1.10,2013-01-15 13:37:00,
2013-01-15 06:52:00,-10.3,-19.0,30.74,ESE,115,0.0,-999.0,64,-99.99,,,0.00,weatherlink.com 1.10,2013-01-15 13:52:00,
2013-01-15 07:07:00,-9.9,-18.0,30.74,SE,144,0.0,-999.0,67,-99.99,,,0.00,weatherlink.com 1.10,2013-01-15 14:07:00,
2013-01-15 07:21:00,-9.2,-18.0,30.76,East,86,1.0,-999.0,66,-99.99,,,0.00,weatherlink.com 1.10,2013-01-15 14:21:00,
2013-01-15 07:36:00,-8.0,-16.0,30.76,SSW,206,2.0,-999.0,68,-99.99,,,0.00,weatherlink.com 1.10,2013-01-15 14:36:00,
2013-01-15 07:51:00,-6.5,-15.0,30.76,ESE,113,3.0,-999.0,67,-99.99,,,0.00,weatherlink.com 1.10,2013-01-15 14:51:00,
2013-01-15 08:07:00,-5.1,-13.0,30.77,South,188,4.0,-999.0,67,-99.99,,,0.00,weatherlink.com 1.10,2013-01-15 15:07:00,
2013-01-15 08:22:00,-3.5,-12.0,30.78,West,273,1.0,-999.0,66,-99.99,,,0.00,weatherlink.com 1.10,2013-01-15 15:22:00,
2013-01-15 08:37:00,-2.3,-11.0,30.79,South,184,2.0,-999.0,65,-99.99,,,0.00,weatherlink.com 1.10,2013-01-15 15:37:00,
2013-01-15 08:52:00,-1.0,-11.0,30.80,SSE,154,0.0,-999.0,64,-99.99,,,0.00,weatherlink.com 1.10,2013-01-15 15:52:00,
2013-01-15 09:07:00,0.1,-9.0,30.79,SSW,208,0.0,-999.0,65,-99.99,,,0.00,weatherlink.com 1.10,2013-01-15 16:07:00,
2013-01-15 09:22:00,2.3,-7.0,30.76,WSW,245,1.0,-999.0,66,-99.99,,,0.00,weatherlink.com 1.10,2013-01-15 16:22:00,
2013-01-15 09:37:00,3.9,-6.0,30.77,SW,227,3.0,-999.0,63,-99.99,,,0.00,weatherlink.com 1.10,2013-01-15 16:37:00,
2013-01-15 09:52:00,4.0,-7.0,30.77,WNW,293,2.0,-999.0,61,-99.99,,,0.00,weatherlink.com 1.10,2013-01-15 16:52:00,
2013-01-15 10:07:00,4.6,-7.0,30.77,SSW,202,1.0,-999.0,60,-99.99,,,0.00,weatherlink.com 1.10,2013-01-15 17:07:00,
2013-01-15 10:22:00,5.4,-6.0,30.77,ESE,109,0.0,-999.0,61,-99.99,,,0.00,weatherlink.com 1.10,2013-01-15 17:22:00,
2013-01-15 12:17:00,11.0,-2.0,30.58,WSW,248,9.0,-999.0,55,-99.99,,,0.00,weatherlink.com 1.10,2013-01-15 19:17:00,
2013-01-15 12:31:00,10.9,-2.0,30.61,NW,313,2.0,-999.0,57,-99.99,,,0.00,weatherlink.com 1.10,2013-01-15 19:31:00,
2013-01-15 12:46:00,10.7,-2.0,30.62,WSW,248,6.0,-999.0,57,-99.99,,,0.00,weatherlink.com 1.10,2013-01-15 19:46:00,
2013-01-15 13:01:00,11.3,-1.0,30.64,South,177,8.0,-999.0,59,-99.99,,,0.00,weatherlink.com 1.10,2013-01-15 20:01:00,
2013-01-15 13:16:00,10.5,-2.0,30.67,WSW,250,1.0,-999.0,57,-99.99,,,0.00,weatherlink.com 1.10,2013-01-15 20:16:00,
2013-01-15 13:31:00,10.4,-2.0,30.69,SSW,207,3.0,-999.0,58,-99.99,,,0.00,weatherlink.com 1.10,2013-01-15 20:31:00,
2013-01-15 13:46:00,9.4,-3.0,30.70,SE,145,1.0,-999.0,58,-99.99,,,0.00,weatherlink.com 1.10,2013-01-15 20:46:00,
2013-01-15 14:01:00,8.7,-3.0,30.71,SE,129,4.0,-999.0,60,-99.99,,,0.00,weatherlink.com 1.10,2013-01-15 21:01:00,
2013-01-15 14:16:00,9.7,-2.0,30.72,West,261,6.0,-999.0,59,-99.99,,,0.00,weatherlink.com 1.10,2013-01-15 21:16:00,
2013-01-15 14:31:00,10.0,-2.0,30.73,SW,222,1.0,-999.0,59,-99.99,,,0.00,weatherlink.com 1.10,2013-01-15 21:31:00,
2013-01-15 14:46:00,10.3,-2.0,30.73,ENE,69,2.0,-999.0,58,-99.99,,,0.00,weatherlink.com 1.10,2013-01-15 21:46:00,
2013-01-15 15:01:00,9.2,-2.0,30.76,ESE,109,1.0,-999.0,61,-99.99,,,0.00,weatherlink.com 1.10,2013-01-15 22:01:00,
2013-01-15 15:16:00,8.7,-2.0,30.77,East,96,1.0,-999.0,63,-99.99,,,0.00,weatherlink.com 1.10,2013-01-15 22:16:00,
2013-01-15 15:31:00,8.8,-1.0,30.78,NE,38,5.0,-999.0,65,-99.99,,,0.00,weatherlink.com 1.10,2013-01-15 22:31:00,
2013-01-15 15:46:00,8.8,-2.0,30.79,ENE,57,2.0,-999.0,63,-99.99,,,0.00,weatherlink.com 1.10,2013-01-15 22:46:00,
2013-01-15 16:01:00,8.1,-2.0,30.80,East,89,1.0,-999.0,63,-99.99,,,0.00,weatherlink.com 1.10,2013-01-15 23:01:00,
2013-01-15 16:16:00,7.4,-3.0,30.80,SSW,192,1.0,-999.0,63,-99.99,,,0.00,weatherlink.com 1.10,2013-01-15 23:16:00,
2013-01-15 16:31:00,7.3,-3.0,30.81,South,177,1.0,-999.0,64,-99.99,,,0.00,weatherlink.com 1.10,2013-01-15 23:31:00,
2013-01-15 16:46:00,6.8,-3.0,30.81,ENE,67,1.0,-999.0,64,-99.99,,,0.00,weatherlink.com 1.10,2013-01-15 23:46:00,
2013-01-15 17:01:00,7.3,-2.0,30.80,South,171,2.0,-999.0,65,-99.99,,,0.00,weatherlink.com 1.10,2013-01-16 00:01:00,
2013-01-15 17:16:00,7.6,-2.0,30.80,SE,137,1.0,-999.0,65,-99.99,,,0.00,weatherlink.com 1.10,2013-01-16 00:16:00,
2013-01-15 17:31:00,7.8,-1.0,30.79,East,85,1.0,-999.0,66,-99.99,,,0.00,weatherlink.com 1.10,2013-01-16 00:31:00,
2013-01-15 17:46:00,8.8,-1.0,30.81,East,94,1.0,-999.0,66,-99.99,,,0.00,weatherlink.com 1.10,2013-01-16 00:46:00,
2013-01-15 18:01:00,9.2,-1.0,30.82,East,96,1.0,-999.0,64,-99.99,,,0.00,weatherlink.com 1.10,2013-01-16 01:01:00,
2013-01-15 18:16:00,9.0,-1.0,30.82,ESE,111,1.0,-999.0,65,-99.99,,,0.00,weatherlink.com 1.10,2013-01-16 01:16:00,
2013-01-15 18:31:00,8.7,-1.0,30.81,ENE,69,1.0,-999.0,65,-99.99,,,0.00,weatherlink.com 1.10,2013-01-16 01:31:00,
2013-01-15 18:46:00,8.9,0.0,30.82,ESE,117,2.0,-999.0,67,-99.99,,,0.00,weatherlink.com 1.10,2013-01-16 01:46:00,
2013-01-15 19:01:00,9.2,0.0,30.83,ESE,102,1.0,-999.0,67,-99.99,,,0.00,weatherlink.com 1.10,2013-01-16 02:01:00,
2013-01-15 19:18:00,9.5,1.0,30.82,East,92,1.0,-999.0,67,-99.99,,,0.00,weatherlink.com 1.10,2013-01-16 02:18:00,
2013-01-15 19:31:00,9.9,1.0,30.82,East,87,1.0,-999.0,67,-99.99,,,0.00,weatherlink.com 1.10,2013-01-16 02:31:00,
2013-01-15 19:46:00,9.9,1.0,30.83,ESE,103,1.0,-999.0,67,-99.99,,,0.00,weatherlink.com 1.10,2013-01-16 02:46:00,
2013-01-15 20:01:00,9.6,1.0,30.82,SE,132,4.0,-999.0,67,-99.99,,,0.00,weatherlink.com 1.10,2013-01-16 03:01:00,
2013-01-15 20:16:00,9.2,1.0,30.81,ESE,122,2.0,-999.0,68,-99.99,,,0.00,weatherlink.com 1.10,2013-01-16 03:16:00,
2013-01-15 20:31:00,9.4,1.0,30.83,East,84,2.0,-999.0,69,-99.99,,,0.00,weatherlink.com 1.10,2013-01-16 03:31:00,
2013-01-15 20:46:00,9.9,1.0,30.84,South,176,1.0,-999.0,68,-99.99,,,0.00,weatherlink.com 1.10,2013-01-16 03:46:00,
2013-01-15 21:01:00,9.6,1.0,30.83,ESE,114,1.0,-999.0,67,-99.99,,,0.00,weatherlink.com 1.10,2013-01-16 04:01:00,
2013-01-15 21:16:00,9.6,1.0,30.83,ESE,113,0.0,-999.0,67,-99.99,,,0.00,weatherlink.com 1.10,2013-01-16 04:16:00,
2013-01-15 21:31:00,9.9,2.0,30.83,South,172,1.0,-999.0,70,-99.99,,,0.00,weatherlink.com 1.10,2013-01-16 04:31:00,
2013-01-15 21:46:00,10.7,3.0,30.83,East,79,1.0,-999.0,70,-99.99,,,0.00,weatherlink.com 1.10,2013-01-16 04:46:00,
2013-01-15 22:01:00,10.9,2.0,30.82,East,88,0.0,-999.0,68,-99.99,,,0.00,weatherlink.com 1.10,2013-01-16 05:01:00,
2013-01-15 22:16:00,10.3,3.0,30.82,East,97,1.0,-999.0,71,-99.99,,,0.00,weatherlink.com 1.10,2013-01-16 05:16:00,
2013-01-15 22:31:00,10.9,3.0,30.81,SSW,198,2.0,-999.0,70,-99.99,,,0.00,weatherlink.com 1.10,2013-01-16 05:31:00,
2013-01-15 22:46:00,10.8,3.0,30.82,East,95,1.0,-999.0,70,-99.99,,,0.00,weatherlink.com 1.10,2013-01-16 05:46:00,
2013-01-15 23:01:00,11.0,3.0,30.83,SE,132,1.0,-999.0,69,-99.99,,,0.00,weatherlink.com 1.10,2013-01-16 06:01:00,
2013-01-15 23:16:00,10.6,3.0,30.83,South,173,0.0,-999.0,70,-99.99,,,0.00,weatherlink.com 1.10,2013-01-16 06:16:00,
2013-01-15 23:31:00,11.4,4.0,30.83,SW,227,1.0,-999.0,72,-99.99,,,0.00,weatherlink.com 1.10,2013-01-16 06:31:00,